Time;durP1;ratioP1;P1;durP2;ratioP2;P2;SDS_P1;SDS_P2;PMS_P1;PMS_P2;Temp;Humidity;BMP_temperature;BMP_pressure;BME280_temperature;BME280_humidity;BME280_pressure;Samples;Min_cycle;Max_cycle;Signal;HPM_P1;HPM_P2
2022/05/08 00:02:09;;;;;;;;;;;22.90;41.90;;;;;;5036664;28;19909;-76
2022/05/08 00:04:35;;;;;;;;;;;22.90;41.90;;;;;;5046236;28;19957;-74
2022/05/08 00:07:00;;;;;;;;;;;22.90;42.00;;;;;;5050084;28;19967;-75
2022/05/08 00:09:26;;;;;;;;;;;22.90;41.90;;;;;;5049640;28;19935;-76
2022/05/08 00:11:52;;;;;;;;;;;22.90;41.90;;;;;;5034085;28;20052;-75
2022/05/08 00:14:18;;;;;;;;;;;22.90;41.90;;;;;;5032508;28;20281;-76
2022/05/08 00:16:43;;;;;;;;;;;22.80;41.70;;;;;;5049524;28;19914;-76
2022/05/08 00:19:09;;;;;;;;;;;22.90;41.70;;;;;;5046773;28;20397;-76
2022/05/08 00:21:34;;;;;;;;;;;22.80;41.70;;;;;;5036205;28;19935;-75
2022/05/08 00:24:00;;;;;;;;;;;22.80;41.70;;;;;;5036373;28;19908;-75
2022/05/08 00:26:25;;;;;;;;;;;22.80;41.70;;;;;;5035460;28;19951;-76
2022/05/08 00:28:50;;;;;;;;;;;22.80;41.60;;;;;;5036084;28;19912;-75
2022/05/08 00:31:16;;;;;;;;;;;22.80;41.70;;;;;;5019038;28;19909;-75
2022/05/08 00:33:42;;;;;;;;;;;22.80;41.70;;;;;;5036471;28;19916;-76
2022/05/08 00:36:08;;;;;;;;;;;22.80;41.60;;;;;;5035822;28;19913;-76
2022/05/08 00:38:33;;;;;;;;;;;22.80;41.60;;;;;;5036062;28;20388;-76
2022/05/08 00:40:59;;;;;;;;;;;22.80;41.50;;;;;;5053177;28;19917;-75
2022/05/08 00:43:26;;;;;;;;;;;22.80;41.60;;;;;;5052149;28;19987;-76
2022/05/08 00:45:51;;;;;;;;;;;22.80;41.70;;;;;;5055284;28;20250;-75
2022/05/08 00:48:17;;;;;;;;;;;22.70;41.60;;;;;;5016111;28;19921;-76
2022/05/08 00:50:42;;;;;;;;;;;22.70;41.60;;;;;;5033363;28;20354;-76
2022/05/08 00:53:08;;;;;;;;;;;22.70;41.60;;;;;;5046030;28;19930;-75
2022/05/08 00:55:33;;;;;;;;;;;22.70;41.50;;;;;;5068804;28;19909;-76
2022/05/08 00:58:00;;;;;;;;;;;22.70;41.50;;;;;;5052041;28;19920;-75
2022/05/08 01:00:25;;;;;;;;;;;22.70;41.50;;;;;;5052939;28;19916;-76
2022/05/08 01:02:51;;;;;;;;;;;22.70;41.60;;;;;;5034213;28;19913;-76
2022/05/08 01:05:16;;;;;;;;;;;22.70;41.60;;;;;;5065160;28;19928;-76
2022/05/08 01:07:42;;;;;;;;;;;22.70;41.60;;;;;;5053577;28;20380;-76
2022/05/08 01:10:09;;;;;;;;;;;22.70;41.60;;;;;;5067939;28;19909;-75
2022/05/08 01:12:34;;;;;;;;;;;22.70;41.50;;;;;;5068271;28;19959;-76
2022/05/08 01:15:13;;;;;;;;;;;22.60;41.60;;;;;;5068209;28;19912;-75
2022/05/08 01:17:38;;;;;;;;;;;22.60;41.50;;;;;;5051500;28;19908;-75
2022/05/08 01:20:04;;;;;;;;;;;22.60;41.60;;;;;;5053007;28;19920;-75
2022/05/08 01:22:29;;;;;;;;;;;22.60;41.50;;;;;;5048098;28;19917;-75
2022/05/08 01:24:55;;;;;;;;;;;22.70;41.80;;;;;;5015253;28;19959;-76
2022/05/08 01:27:20;;;;;;;;;;;22.60;41.50;;;;;;5029170;28;19916;-75
2022/05/08 01:29:46;;;;;;;;;;;22.60;41.60;;;;;;5018302;28;19995;-76
2022/05/08 01:32:11;;;;;;;;;;;22.60;41.60;;;;;;5052943;28;19980;-76
2022/05/08 01:34:36;;;;;;;;;;;22.60;41.50;;;;;;5053019;28;20376;-76
2022/05/08 01:37:02;;;;;;;;;;;22.60;41.60;;;;;;5018566;28;19991;-76
2022/05/08 01:39:27;;;;;;;;;;;22.60;41.60;;;;;;5054564;28;19917;-75
2022/05/08 01:41:53;;;;;;;;;;;22.50;41.50;;;;;;5056671;28;20288;-76
2022/05/08 01:44:18;;;;;;;;;;;22.50;41.40;;;;;;5038719;28;20405;-75
2022/05/08 01:46:44;;;;;;;;;;;22.50;41.50;;;;;;5055623;28;19912;-76
2022/05/08 01:49:09;;;;;;;;;;;22.60;41.40;;;;;;5072317;28;20402;-75
2022/05/08 01:51:35;;;;;;;;;;;22.50;41.50;;;;;;5056846;28;20337;-76
2022/05/08 01:54:02;;;;;;;;;;;22.50;41.50;;;;;;5072226;28;19916;-76
2022/05/08 01:56:28;;;;;;;;;;;22.50;41.40;;;;;;5056253;28;19909;-75
2022/05/08 01:58:53;;;;;;;;;;;22.50;41.50;;;;;;5072132;28;19920;-74
2022/05/08 02:01:19;;;;;;;;;;;22.50;41.50;;;;;;5049928;28;19924;-76
2022/05/08 02:03:44;;;;;;;;;;;22.50;41.40;;;;;;5018914;28;20000;-76
2022/05/08 02:06:10;;;;;;;;;;;22.50;41.40;;;;;;5002035;28;19925;-75
2022/05/08 02:08:35;;;;;;;;;;;22.50;41.40;;;;;;5012429;28;19916;-77
2022/05/08 02:11:01;;;;;;;;;;;22.50;41.40;;;;;;5051377;28;19909;-75
2022/05/08 02:13:26;;;;;;;;;;;22.50;41.50;;;;;;5051925;28;20372;-75
2022/05/08 02:15:51;;;;;;;;;;;22.50;41.40;;;;;;5034641;28;19936;-75
2022/05/08 02:18:17;;;;;;;;;;;22.40;41.30;;;;;;5032019;28;19920;-75
2022/05/08 02:20:42;;;;;;;;;;;22.40;41.40;;;;;;5071708;28;19913;-76
2022/05/08 02:23:08;;;;;;;;;;;22.40;41.30;;;;;;5072053;28;19995;-76
2022/05/08 02:25:33;;;;;;;;;;;22.40;41.40;;;;;;5071587;28;20384;-75
2022/05/08 02:27:59;;;;;;;;;;;22.40;41.30;;;;;;5055878;28;20292;-75
2022/05/08 02:30:25;;;;;;;;;;;22.40;41.40;;;;;;5071371;28;19913;-75
2022/05/08 02:32:51;;;;;;;;;;;22.40;41.40;;;;;;5055130;28;19913;-76
2022/05/08 02:35:17;;;;;;;;;;;22.40;41.30;;;;;;5053937;28;19970;-75
2022/05/08 02:37:42;;;;;;;;;;;22.40;41.30;;;;;;5071122;28;20361;-75
2022/05/08 02:40:11;;;;;;;;;;;22.30;41.30;;;;;;5071513;28;19916;-75
2022/05/08 02:42:37;;;;;;;;;;;22.30;41.30;;;;;;5070602;28;20259;-75
2022/05/08 02:45:03;;;;;;;;;;;22.30;41.40;;;;;;5048269;28;19916;-76
2022/05/08 02:47:28;;;;;;;;;;;22.20;41.50;;;;;;5018051;28;19917;-75
2022/05/08 02:49:54;;;;;;;;;;;22.20;41.40;;;;;;5035610;28;19913;-74
2022/05/08 02:52:20;;;;;;;;;;;22.20;41.40;;;;;;5032526;28;19917;-76
2022/05/08 02:54:45;;;;;;;;;;;22.20;41.30;;;;;;5054140;28;19932;-75
2022/05/08 02:59:55;;;;;;;;;;;22.20;41.40;;;;;;5055260;28;19924;-75
2022/05/08 03:02:20;;;;;;;;;;;22.20;41.30;;;;;;5054174;28;19913;-76
2022/05/08 03:04:45;;;;;;;;;;;22.20;41.40;;;;;;5053883;28;19925;-76
2022/05/08 03:07:11;;;;;;;;;;;22.20;41.30;;;;;;5071119;28;20364;-76
2022/05/08 03:09:37;;;;;;;;;;;22.10;41.30;;;;;;5069514;28;20289;-75
2022/05/08 03:12:03;;;;;;;;;;;22.20;41.50;;;;;;5070531;28;20184;-76
2022/05/08 03:14:28;;;;;;;;;;;22.10;41.30;;;;;;5037462;28;19986;-75
2022/05/08 03:16:53;;;;;;;;;;;22.10;41.20;;;;;;5070828;28;19909;-75
2022/05/08 03:19:21;;;;;;;;;;;22.10;41.20;;;;;;5055065;28;19947;-76
2022/05/08 03:21:50;;;;;;;;;;;22.10;41.20;;;;;;5051492;28;19913;-76
2022/05/08 03:24:16;;;;;;;;;;;22.10;41.30;;;;;;5018332;28;19909;-76
2022/05/08 03:26:42;;;;;;;;;;;22.10;41.20;;;;;;5034052;28;20003;-76
2022/05/08 03:29:08;;;;;;;;;;;22.10;41.20;;;;;;5037224;28;20319;-76
2022/05/08 03:31:34;;;;;;;;;;;22.20;41.10;;;;;;5036683;28;20419;-76
2022/05/08 03:33:59;;;;;;;;;;;22.10;41.00;;;;;;5037361;28;20011;-76
2022/05/08 03:36:24;;;;;;;;;;;22.10;41.10;;;;;;5020486;28;19913;-75
2022/05/08 03:38:50;;;;;;;;;;;22.10;41.20;;;;;;5036777;28;19913;-75
2022/05/08 03:41:15;;;;;;;;;;;22.10;41.10;;;;;;5069703;28;20398;-75
2022/05/08 03:43:42;;;;;;;;;;;22.10;41.10;;;;;;5069218;28;19909;-77
2022/05/08 03:46:08;;;;;;;;;;;22.10;41.10;;;;;;5052753;28;19912;-77
2022/05/08 03:48:34;;;;;;;;;;;22.10;41.00;;;;;;5070077;28;20395;-76
2022/05/08 03:51:00;;;;;;;;;;;22.10;41.00;;;;;;5053041;28;20636;-75
2022/05/08 03:53:26;;;;;;;;;;;22.10;40.90;;;;;;5036291;28;20383;-76
2022/05/08 03:55:51;;;;;;;;;;;22.10;40.90;;;;;;5045662;28;19913;-76
2022/05/08 03:58:17;;;;;;;;;;;22.10;41.00;;;;;;5016554;28;20007;-75
2022/05/08 04:00:42;;;;;;;;;;;22.10;40.90;;;;;;5033437;28;20361;-76
2022/05/08 04:03:08;;;;;;;;;;;22.10;40.90;;;;;;5053741;28;20265;-75
2022/05/08 04:05:33;;;;;;;;;;;22.10;40.90;;;;;;5036212;28;20384;-75
2022/05/08 04:07:59;;;;;;;;;;;22.10;40.80;;;;;;5069518;28;20392;-76
2022/05/08 04:10:24;;;;;;;;;;;22.10;40.80;;;;;;5069491;28;19936;-76
2022/05/08 04:12:50;;;;;;;;;;;22.10;40.90;;;;;;5052475;28;19912;-76
2022/05/08 04:17:59;;;;;;;;;;;22.00;40.90;;;;;;5053825;28;19927;-76
2022/05/08 04:20:25;;;;;;;;;;;22.10;40.90;;;;;;5019406;28;19909;-76
2022/05/08 04:25:35;;;;;;;;;;;22.00;40.90;;;;;;5038337;28;19967;-76
2022/05/08 04:28:00;;;;;;;;;;;22.00;40.80;;;;;;5054117;28;19944;-75
2022/05/08 04:30:25;;;;;;;;;;;22.00;40.80;;;;;;5036294;28;19915;-76
2022/05/08 04:32:51;;;;;;;;;;;22.00;40.80;;;;;;5036229;28;19909;-75
2022/05/08 04:35:16;;;;;;;;;;;22.00;40.70;;;;;;5036070;28;19954;-75
2022/05/08 04:37:42;;;;;;;;;;;22.00;40.80;;;;;;5036005;28;20285;-76
2022/05/08 04:40:07;;;;;;;;;;;22.00;40.80;;;;;;5035982;28;19913;-76
2022/05/08 04:42:33;;;;;;;;;;;22.00;40.80;;;;;;5035820;28;19909;-76
2022/05/08 04:44:59;;;;;;;;;;;22.00;40.60;;;;;;5032758;28;19916;-76
2022/05/08 04:47:27;;;;;;;;;;;22.00;40.80;;;;;;5015526;28;20015;-75
2022/05/08 04:49:53;;;;;;;;;;;22.00;40.80;;;;;;5018007;28;19909;-76
2022/05/08 04:52:18;;;;;;;;;;;22.00;40.80;;;;;;5053954;28;20433;-76
2022/05/08 04:54:44;;;;;;;;;;;22.00;40.70;;;;;;5069164;28;20369;-75
2022/05/08 04:57:09;;;;;;;;;;;22.00;40.60;;;;;;5051876;28;20428;-76
2022/05/08 04:59:35;;;;;;;;;;;22.00;40.60;;;;;;5034932;28;20280;-76
2022/05/08 05:02:02;;;;;;;;;;;22.00;40.60;;;;;;5065513;28;20361;-76
2022/05/08 05:04:27;;;;;;;;;;;22.00;40.70;;;;;;5067815;28;19964;-76
2022/05/08 05:06:53;;;;;;;;;;;22.00;40.70;;;;;;5051776;28;20361;-75
2022/05/08 05:09:18;;;;;;;;;;;22.00;40.70;;;;;;5015759;28;19948;-75
2022/05/08 05:11:44;;;;;;;;;;;22.00;40.70;;;;;;5048396;28;20526;-76
2022/05/08 05:14:09;;;;;;;;;;;22.00;40.70;;;;;;5048288;28;19917;-75
2022/05/08 05:16:35;;;;;;;;;;;21.90;40.60;;;;;;5048363;28;19964;-75
2022/05/08 05:19:00;;;;;;;;;;;21.90;40.60;;;;;;5048470;28;19913;-75
2022/05/08 05:21:26;;;;;;;;;;;21.90;40.70;;;;;;5033046;28;19909;-75
2022/05/08 05:23:51;;;;;;;;;;;21.90;40.70;;;;;;5000925;28;19910;-75
2022/05/08 05:26:16;;;;;;;;;;;21.80;40.60;;;;;;5052802;28;19909;-75
2022/05/08 05:28:44;;;;;;;;;;;21.90;40.60;;;;;;5053081;28;19913;-75
2022/05/08 05:31:11;;;;;;;;;;;21.90;40.60;;;;;;5067937;28;19916;-75
2022/05/08 05:33:36;;;;;;;;;;;21.90;40.60;;;;;;5068734;28;19909;-75
2022/05/08 05:36:02;;;;;;;;;;;21.80;40.50;;;;;;5068469;28;19909;-77
2022/05/08 05:38:27;;;;;;;;;;;21.90;40.60;;;;;;5068354;28;19919;-75
2022/05/08 05:40:53;;;;;;;;;;;21.90;40.60;;;;;;5052425;28;19908;-75
2022/05/08 05:43:18;;;;;;;;;;;21.90;40.60;;;;;;5051941;28;19908;-76
2022/05/08 05:45:43;;;;;;;;;;;21.80;40.50;;;;;;5034635;28;19932;-75
2022/05/08 05:48:09;;;;;;;;;;;21.80;40.50;;;;;;5035086;28;19923;-75
2022/05/08 05:50:35;;;;;;;;;;;21.80;40.50;;;;;;5068424;28;19913;-75
2022/05/08 05:53:00;;;;;;;;;;;21.80;40.50;;;;;;5053152;28;19916;-75
2022/05/08 05:55:26;;;;;;;;;;;21.80;40.50;;;;;;5051414;28;20273;-75
2022/05/08 05:57:51;;;;;;;;;;;21.80;40.50;;;;;;5051458;28;20264;-75
2022/05/08 06:00:17;;;;;;;;;;;21.80;40.60;;;;;;5067985;28;19915;-76
2022/05/08 06:02:43;;;;;;;;;;;21.80;40.60;;;;;;5052667;28;19909;-76
2022/05/08 06:05:13;;;;;;;;;;;21.80;40.50;;;;;;5025881;28;19968;-75
2022/05/08 06:07:38;;;;;;;;;;;21.80;40.50;;;;;;5068366;28;19909;-76
2022/05/08 06:10:04;;;;;;;;;;;21.80;40.50;;;;;;5068254;28;19947;-76
2022/05/08 06:12:30;;;;;;;;;;;21.80;40.50;;;;;;5047788;28;19933;-76
2022/05/08 06:14:55;;;;;;;;;;;21.80;40.50;;;;;;5035174;28;20475;-75
2022/05/08 06:17:21;;;;;;;;;;;21.80;40.50;;;;;;5054820;28;19909;-76
2022/05/08 06:19:46;;;;;;;;;;;21.80;40.60;;;;;;5054342;28;19938;-76
2022/05/08 06:22:12;;;;;;;;;;;21.80;40.70;;;;;;5036908;28;19916;-76
2022/05/08 06:24:40;;;;;;;;;;;21.70;40.60;;;;;;5056588;28;19909;-77
2022/05/08 06:27:06;;;;;;;;;;;21.80;40.70;;;;;;5058891;28;19931;-76
2022/05/08 06:29:34;;;;;;;;;;;21.70;40.70;;;;;;5042106;28;20436;-76
2022/05/08 06:32:00;;;;;;;;;;;21.70;40.50;;;;;;5040693;28;19916;-76
2022/05/08 06:34:26;;;;;;;;;;;21.80;40.60;;;;;;5040826;28;19915;-76
2022/05/08 06:36:52;;;;;;;;;;;21.70;40.50;;;;;;5060927;28;20368;-76
2022/05/08 06:39:17;;;;;;;;;;;21.70;40.50;;;;;;5043749;28;19948;-74
2022/05/08 06:41:42;;;;;;;;;;;21.70;40.60;;;;;;5060466;28;19944;-75
2022/05/08 06:44:08;;;;;;;;;;;21.70;40.50;;;;;;5076728;28;19916;-76
2022/05/08 06:46:35;;;;;;;;;;;21.70;40.60;;;;;;5060736;28;19909;-76
2022/05/08 06:49:01;;;;;;;;;;;21.70;40.70;;;;;;5027323;28;20280;-75
2022/05/08 06:51:27;;;;;;;;;;;21.70;40.70;;;;;;5061279;28;19908;-76
2022/05/08 06:53:52;;;;;;;;;;;21.60;40.60;;;;;;5060799;28;19915;-76
2022/05/08 06:56:18;;;;;;;;;;;21.60;40.60;;;;;;5060608;28;19916;-76
2022/05/08 07:01:40;;;;;;;;;;;21.70;40.90;;;;;;5067987;28;19916;-76
2022/05/08 07:04:06;;;;;;;;;;;21.70;40.70;;;;;;5063355;28;20508;-75
2022/05/08 07:06:32;;;;;;;;;;;21.70;40.60;;;;;;5065701;28;19963;-75
2022/05/08 07:08:57;;;;;;;;;;;21.70;40.60;;;;;;5059926;28;20292;-76
2022/05/08 07:11:23;;;;;;;;;;;21.70;40.50;;;;;;5040414;28;19920;-76
2022/05/08 07:13:48;;;;;;;;;;;21.70;40.40;;;;;;5058069;28;19909;-75
2022/05/08 07:16:14;;;;;;;;;;;21.70;40.40;;;;;;5040856;28;19920;-75
2022/05/08 07:18:39;;;;;;;;;;;21.70;40.40;;;;;;5062189;28;19932;-76
2022/05/08 07:21:05;;;;;;;;;;;21.70;40.50;;;;;;5023271;28;19956;-76
2022/05/08 07:23:31;;;;;;;;;;;21.70;40.40;;;;;;5029277;28;19913;-75
2022/05/08 07:25:57;;;;;;;;;;;21.70;40.40;;;;;;5059522;28;20333;-75
2022/05/08 07:28:22;;;;;;;;;;;21.70;40.50;;;;;;5058412;28;19920;-75
2022/05/08 07:30:49;;;;;;;;;;;21.70;40.50;;;;;;5050835;28;19909;-76
2022/05/08 07:33:16;;;;;;;;;;;21.60;40.60;;;;;;5043151;28;19909;-76
2022/05/08 07:38:26;;;;;;;;;;;21.60;40.60;;;;;;5032068;28;19936;-76
2022/05/08 07:40:52;;;;;;;;;;;21.60;40.70;;;;;;5072899;28;19960;-75
2022/05/08 07:43:17;;;;;;;;;;;21.70;40.80;;;;;;5039362;28;20364;-75
2022/05/08 07:45:43;;;;;;;;;;;21.70;40.70;;;;;;5051050;28;20019;-76
2022/05/08 07:48:09;;;;;;;;;;;21.70;40.60;;;;;;5020969;28;20328;-75
2022/05/08 07:50:34;;;;;;;;;;;21.70;40.80;;;;;;5022865;28;19939;-75
2022/05/08 07:52:59;;;;;;;;;;;21.70;40.60;;;;;;5058599;28;20407;-75
2022/05/08 07:55:25;;;;;;;;;;;21.70;40.60;;;;;;5050941;28;20342;-75
2022/05/08 07:57:50;;;;;;;;;;;21.70;40.70;;;;;;5038818;28;20292;-76
2022/05/08 08:00:16;;;;;;;;;;;21.70;40.70;;;;;;5034644;28;20270;-76
2022/05/08 08:02:41;;;;;;;;;;;21.70;40.70;;;;;;5037223;28;20254;-76
2022/05/08 08:05:07;;;;;;;;;;;21.70;40.90;;;;;;5036897;28;19928;-75
2022/05/08 08:07:33;;;;;;;;;;;21.70;40.80;;;;;;5037189;28;20237;-74
2022/05/08 08:09:58;;;;;;;;;;;21.70;40.80;;;;;;5054134;28;19913;-75
2022/05/08 08:12:24;;;;;;;;;;;21.70;41.00;;;;;;5051638;28;20624;-76
2022/05/08 08:14:49;;;;;;;;;;;21.70;41.00;;;;;;5022174;28;19920;-75
2022/05/08 08:17:15;;;;;;;;;;;21.70;40.90;;;;;;5067597;28;19917;-76
2022/05/08 08:19:40;;;;;;;;;;;21.70;41.00;;;;;;5070642;28;20011;-76
2022/05/08 08:22:06;;;;;;;;;;;21.70;40.90;;;;;;5017743;28;19909;-77
2022/05/08 08:24:32;;;;;;;;;;;21.70;41.00;;;;;;5009749;28;19959;-76
2022/05/08 08:26:57;;;;;;;;;;;21.70;41.00;;;;;;5053863;28;20379;-76
2022/05/08 08:29:22;;;;;;;;;;;21.60;40.90;;;;;;5017292;28;19955;-76
2022/05/08 08:31:48;;;;;;;;;;;21.70;41.00;;;;;;5032286;28;19916;-76
2022/05/08 08:34:13;;;;;;;;;;;21.70;41.00;;;;;;5070735;28;20424;-75
2022/05/08 08:36:39;;;;;;;;;;;21.70;41.00;;;;;;5055634;28;20574;-76
2022/05/08 08:39:04;;;;;;;;;;;21.70;40.90;;;;;;5060121;28;19916;-76
2022/05/08 08:41:32;;;;;;;;;;;21.70;41.00;;;;;;5034999;28;19932;-76
2022/05/08 08:49:26;;;;;;;;;;;21.60;41.20;;;;;;5037780;28;19923;-75
2022/05/08 08:51:52;;;;;;;;;;;21.60;41.20;;;;;;5055528;28;19912;-75
2022/05/08 08:54:18;;;;;;;;;;;21.60;41.20;;;;;;5056748;28;19919;-75
2022/05/08 08:56:44;;;;;;;;;;;21.60;41.40;;;;;;5057750;28;19917;-75
2022/05/08 08:59:09;;;;;;;;;;;21.60;41.40;;;;;;5062706;28;19925;-76
2022/05/08 09:01:44;;;;;;;;;;;21.60;41.40;;;;;;5033195;28;20023;-77
2022/05/08 09:04:10;;;;;;;;;;;21.60;41.20;;;;;;5055533;28;19928;-77
2022/05/08 09:06:43;;;;;;;;;;;21.70;41.20;;;;;;5049767;28;20292;-76
2022/05/08 09:09:21;;;;;;;;;;;21.60;41.30;;;;;;5008999;28;20373;-77
2022/05/08 09:11:47;;;;;;;;;;;21.60;41.20;;;;;;5030963;28;20005;-76
2022/05/08 09:14:25;;;;;;;;;;;21.70;41.30;;;;;;5034003;28;19948;-75
2022/05/08 09:16:51;;;;;;;;;;;21.60;41.20;;;;;;5024424;28;19913;-76
2022/05/08 09:19:28;;;;;;;;;;;21.70;41.30;;;;;;5059857;28;19916;-76
2022/05/08 09:21:57;;;;;;;;;;;21.70;41.20;;;;;;5051326;28;20361;-77
2022/05/08 09:24:22;;;;;;;;;;;21.60;41.10;;;;;;5061122;28;19952;-76
2022/05/08 09:26:49;;;;;;;;;;;21.60;41.10;;;;;;5033141;28;19920;-76
2022/05/08 09:29:21;;;;;;;;;;;21.70;41.20;;;;;;5049816;28;19980;-75
2022/05/08 09:31:47;;;;;;;;;;;21.60;41.20;;;;;;5049722;28;19955;-76
2022/05/08 09:34:12;;;;;;;;;;;21.60;41.20;;;;;;5049954;28;19913;-76
2022/05/08 09:36:37;;;;;;;;;;;21.60;41.20;;;;;;5049437;28;19917;-76
2022/05/08 09:39:03;;;;;;;;;;;21.60;41.20;;;;;;5048405;28;19917;-76
2022/05/08 09:41:29;;;;;;;;;;;21.60;41.20;;;;;;5016336;28;19909;-76
2022/05/08 09:43:55;;;;;;;;;;;21.60;41.20;;;;;;5053449;28;19928;-76
2022/05/08 09:46:21;;;;;;;;;;;21.70;41.30;;;;;;5070628;28;19924;-76
2022/05/08 09:48:46;;;;;;;;;;;21.70;41.30;;;;;;5070510;28;19912;-76
2022/05/08 09:51:13;;;;;;;;;;;21.70;41.40;;;;;;5069473;28;20377;-75
2022/05/08 09:53:39;;;;;;;;;;;21.70;42.00;;;;;;5052816;28;19909;-76
2022/05/08 09:56:07;;;;;;;;;;;21.70;41.50;;;;;;5066208;28;19913;-76
2022/05/08 09:58:32;;;;;;;;;;;21.70;41.40;;;;;;5051139;28;19971;-76
2022/05/08 10:00:58;;;;;;;;;;;21.70;41.30;;;;;;5033449;28;19910;-78
2022/05/08 10:03:24;;;;;;;;;;;21.70;41.50;;;;;;5036598;28;19968;-75
2022/05/08 10:05:50;;;;;;;;;;;21.60;41.50;;;;;;5035433;28;19990;-75
2022/05/08 10:08:16;;;;;;;;;;;21.60;41.50;;;;;;5058552;28;19908;-77
2022/05/08 10:16:47;;;;;;;;;;;21.60;41.50;;;;;;5037005;28;20230;-76
2022/05/08 10:19:22;;;;;;;;;;;21.60;41.60;;;;;;5013712;28;19924;-77
2022/05/08 10:21:56;;;;;;;;;;;21.60;41.60;;;;;;5051398;28;19948;-76
2022/05/08 10:24:40;;;;;;;;;;;21.60;41.50;;;;;;5051986;28;19949;-76
2022/05/08 10:27:13;;;;;;;;;;;21.60;41.50;;;;;;5051831;28;19909;-75
2022/05/08 10:29:38;;;;;;;;;;;21.60;41.50;;;;;;5036251;28;20002;-77
2022/05/08 10:32:06;;;;;;;;;;;21.60;41.50;;;;;;5021386;28;20384;-77
2022/05/08 10:34:32;;;;;;;;;;;21.60;41.40;;;;;;5071185;28;19909;-78
2022/05/08 10:37:11;;;;;;;;;;;21.60;41.60;;;;;;5072429;28;19915;-76
2022/05/08 10:39:47;;;;;;;;;;;21.60;41.40;;;;;;5036022;28;20385;-75
2022/05/08 10:42:22;;;;;;;;;;;21.60;41.50;;;;;;5053912;28;19923;-75
2022/05/08 10:44:47;;;;;;;;;;;21.60;41.50;;;;;;5054060;28;19912;-75
2022/05/08 10:47:31;;;;;;;;;;;21.70;41.40;;;;;;5023524;28;19915;-76
2022/05/08 10:49:57;;;;;;;;;;;21.70;41.50;;;;;;5037971;28;19908;-75
2022/05/08 10:52:22;;;;;;;;;;;21.70;41.50;;;;;;5071105;28;20388;-77
2022/05/08 10:54:57;;;;;;;;;;;21.70;41.50;;;;;;5071406;28;20395;-76
2022/05/08 10:57:33;;;;;;;;;;;21.70;41.50;;;;;;5071660;28;19909;-77
2022/05/08 10:59:59;;;;;;;;;;;21.70;41.50;;;;;;5054519;28;19980;-76
2022/05/08 11:02:41;;;;;;;;;;;21.70;41.30;;;;;;5071415;28;19920;-75
2022/05/08 11:05:07;;;;;;;;;;;21.70;42.10;;;;;;5070392;28;19968;-76
2022/05/08 11:07:32;;;;;;;;;;;21.70;41.40;;;;;;5071541;28;19913;-76
2022/05/08 11:09:58;;;;;;;;;;;21.70;41.50;;;;;;5055917;28;19958;-75
2022/05/08 11:12:24;;;;;;;;;;;21.70;41.50;;;;;;5069383;28;19920;-76
2022/05/08 11:14:49;;;;;;;;;;;21.70;41.30;;;;;;5070675;28;19992;-75
2022/05/08 11:17:15;;;;;;;;;;;21.80;41.40;;;;;;5073207;28;19913;-77
2022/05/08 11:19:53;;;;;;;;;;;21.80;41.20;;;;;;5071979;28;19925;-75
2022/05/08 11:22:18;;;;;;;;;;;21.80;41.10;;;;;;5040907;28;19909;-76
2022/05/08 11:24:49;;;;;;;;;;;21.80;41.30;;;;;;5001457;28;19920;-76
2022/05/08 11:27:14;;;;;;;;;;;21.90;41.30;;;;;;5018741;28;20423;-76
2022/05/08 11:29:49;;;;;;;;;;;21.90;41.30;;;;;;5020977;28;19917;-77
2022/05/08 11:38:01;;;;;;;;;;;21.90;41.10;;;;;;5057849;28;19936;-76
2022/05/08 11:40:27;;;;;;;;;;;22.00;41.20;;;;;;5054832;28;20336;-76
2022/05/08 11:42:52;;;;;;;;;;;22.00;41.20;;;;;;5071777;28;19909;-76
2022/05/08 11:45:18;;;;;;;;;;;22.00;41.10;;;;;;5056899;28;19952;-76
2022/05/08 11:47:50;;;;;;;;;;;22.00;41.20;;;;;;5057800;28;19939;-76
2022/05/08 11:50:15;;;;;;;;;;;22.00;41.10;;;;;;5041962;28;19913;-76
2022/05/08 11:52:41;;;;;;;;;;;22.10;41.20;;;;;;5022709;28;19909;-76
2022/05/08 11:55:08;;;;;;;;;;;22.10;41.10;;;;;;5058284;28;20323;-76
2022/05/08 11:57:43;;;;;;;;;;;22.10;41.20;;;;;;5039498;28;19909;-76
2022/05/08 12:00:12;;;;;;;;;;;22.10;41.00;;;;;;5018565;28;20011;-76
2022/05/08 12:02:38;;;;;;;;;;;22.10;41.00;;;;;;5038624;28;19917;-76
2022/05/08 12:05:04;;;;;;;;;;;22.10;40.70;;;;;;5052760;28;20277;-75
2022/05/08 12:07:39;;;;;;;;;;;22.20;40.90;;;;;;5053960;28;20395;-76
2022/05/08 12:10:05;;;;;;;;;;;22.20;40.90;;;;;;5052382;28;19912;-76
2022/05/08 12:12:35;;;;;;;;;;;22.20;40.90;;;;;;5041844;28;20015;-76
2022/05/08 12:15:02;;;;;;;;;;;22.20;40.90;;;;;;5055798;28;19917;-76
2022/05/08 12:17:29;;;;;;;;;;;22.20;41.00;;;;;;5057107;28;20497;-76
2022/05/08 12:19:55;;;;;;;;;;;22.20;41.00;;;;;;5057180;28;19916;-77
2022/05/08 12:22:21;;;;;;;;;;;22.20;41.00;;;;;;5055489;28;19962;-76
2022/05/08 12:24:47;;;;;;;;;;;22.20;41.00;;;;;;5057699;28;19915;-76
2022/05/08 12:27:12;;;;;;;;;;;22.20;41.00;;;;;;5092621;28;19910;-76
2022/05/08 12:29:38;;;;;;;;;;;22.20;41.00;;;;;;5030808;28;19916;-75
2022/05/08 12:32:04;;;;;;;;;;;22.30;41.00;;;;;;5039718;28;19920;-76
2022/05/08 12:34:29;;;;;;;;;;;22.30;41.00;;;;;;5056952;28;19913;-77
2022/05/08 12:36:55;;;;;;;;;;;22.30;41.00;;;;;;5074863;28;19962;-76
2022/05/08 12:39:20;;;;;;;;;;;22.30;40.90;;;;;;5056817;28;19923;-75
2022/05/08 12:41:45;;;;;;;;;;;22.30;40.90;;;;;;5059086;28;19919;-75
2022/05/08 12:44:11;;;;;;;;;;;22.30;41.00;;;;;;5058871;28;19909;-75
2022/05/08 12:46:36;;;;;;;;;;;22.30;40.80;;;;;;5055877;28;20364;-75
2022/05/08 12:49:02;;;;;;;;;;;22.30;40.90;;;;;;5057261;28;19909;-76
2022/05/08 12:51:30;;;;;;;;;;;22.40;41.00;;;;;;5074466;28;19916;-76
2022/05/08 12:53:56;;;;;;;;;;;22.40;41.00;;;;;;5041268;28;19909;-76
2022/05/08 12:56:21;;;;;;;;;;;22.40;41.00;;;;;;5057458;28;19909;-76
2022/05/08 13:01:31;;;;;;;;;;;22.40;40.90;;;;;;5071203;28;20348;-76
2022/05/08 13:03:56;;;;;;;;;;;22.50;40.70;;;;;;5074144;28;19909;-76
2022/05/08 13:06:22;;;;;;;;;;;22.50;40.80;;;;;;5075711;28;20308;-76
2022/05/08 13:08:47;;;;;;;;;;;22.50;40.80;;;;;;5056747;28;19908;-76
2022/05/08 13:11:13;;;;;;;;;;;22.50;40.60;;;;;;5040992;28;19912;-75
2022/05/08 13:13:38;;;;;;;;;;;22.60;40.80;;;;;;5040356;28;19913;-76
2022/05/08 13:16:04;;;;;;;;;;;22.60;40.70;;;;;;5040374;28;19909;-75
2022/05/08 13:18:30;;;;;;;;;;;22.60;40.70;;;;;;5040947;28;19913;-76
2022/05/08 13:20:55;;;;;;;;;;;22.60;40.50;;;;;;5041206;28;19909;-75
2022/05/08 13:23:21;;;;;;;;;;;22.70;40.60;;;;;;5058898;28;19988;-75
2022/05/08 13:25:46;;;;;;;;;;;22.70;40.70;;;;;;5003739;28;19916;-76
2022/05/08 13:28:12;;;;;;;;;;;22.60;40.50;;;;;;5002723;28;20020;-76
2022/05/08 13:30:37;;;;;;;;;;;22.70;40.60;;;;;;5019349;28;20417;-75
2022/05/08 13:33:03;;;;;;;;;;;22.70;40.10;;;;;;5037935;28;19917;-75
2022/05/08 13:35:28;;;;;;;;;;;22.80;40.30;;;;;;5039115;28;20371;-76
2022/05/08 13:37:53;;;;;;;;;;;22.80;40.20;;;;;;5018462;28;19908;-77
2022/05/08 13:40:19;;;;;;;;;;;22.80;40.20;;;;;;5078625;28;19913;-77
2022/05/08 13:42:44;;;;;;;;;;;22.80;40.00;;;;;;5077175;28;19913;-76
2022/05/08 13:45:10;;;;;;;;;;;22.80;40.20;;;;;;5061537;28;20288;-76
2022/05/08 13:47:35;;;;;;;;;;;22.90;40.10;;;;;;5078083;28;19909;-76
2022/05/08 13:50:06;;;;;;;;;;;22.90;40.10;;;;;;5077498;28;19908;-76
2022/05/08 13:52:31;;;;;;;;;;;22.90;40.20;;;;;;5061287;28;19915;-76
2022/05/08 13:54:57;;;;;;;;;;;22.90;40.20;;;;;;5049271;28;20293;-76
2022/05/08 13:57:23;;;;;;;;;;;22.90;40.10;;;;;;5023243;28;19932;-76
2022/05/08 13:59:48;;;;;;;;;;;23.00;40.20;;;;;;5024861;28;19913;-76
2022/05/08 14:02:15;;;;;;;;;;;23.00;40.00;;;;;;5034261;28;19916;-76
2022/05/08 14:04:43;;;;;;;;;;;23.00;40.00;;;;;;5062860;28;20167;-76
2022/05/08 14:07:09;;;;;;;;;;;23.00;40.00;;;;;;5064086;28;19948;-76
2022/05/08 14:09:35;;;;;;;;;;;23.10;40.10;;;;;;5046660;28;19936;-76
2022/05/08 14:12:00;;;;;;;;;;;23.00;40.00;;;;;;5076673;28;19919;-76
2022/05/08 14:14:27;;;;;;;;;;;23.10;40.00;;;;;;5043031;28;20266;-76
2022/05/08 14:16:52;;;;;;;;;;;23.10;39.90;;;;;;5061663;28;19968;-76
2022/05/08 14:19:17;;;;;;;;;;;23.20;40.00;;;;;;5061122;28;19955;-75
2022/05/08 14:21:43;;;;;;;;;;;23.20;40.00;;;;;;5062995;28;20431;-76
2022/05/08 14:24:08;;;;;;;;;;;23.20;39.90;;;;;;5077723;28;20276;-75
2022/05/08 14:26:34;;;;;;;;;;;23.20;39.80;;;;;;5062094;28;19919;-76
2022/05/08 14:28:59;;;;;;;;;;;23.30;39.90;;;;;;5066408;28;19913;-76
2022/05/08 14:36:53;;;;;;;;;;;23.20;39.80;;;;;;5034103;28;19920;-76
2022/05/08 14:39:18;;;;;;;;;;;23.20;39.90;;;;;;5045689;28;19917;-76
2022/05/08 14:41:45;;;;;;;;;;;23.30;40.10;;;;;;5074521;28;20343;-76
2022/05/08 14:44:11;;;;;;;;;;;23.10;40.00;;;;;;5057547;28;19917;-75
2022/05/08 14:46:36;;;;;;;;;;;23.10;40.00;;;;;;5058568;28;19909;-77
2022/05/08 14:49:02;;;;;;;;;;;23.20;40.10;;;;;;5038365;28;19937;-75
2022/05/08 14:51:28;;;;;;;;;;;23.20;39.90;;;;;;5021364;28;20284;-75